Time;durP1;ratioP1;P1;durP2;ratioP2;P2;SDS_P1;SDS_P2;PMS_P1;PMS_P2;Temp;Humidity;BMP_temperature;BMP_pressure;BME280_temperature;BME280_humidity;BME280_pressure;Samples;Min_cycle;Max_cycle;Signal;HPM_P1;HPM_P2
2023/10/21 00:01:07;;;;;;;0.35;0.30;;;15.90;99.90;;;;;;5062171;28;20231;-58
2023/10/21 00:03:33;;;;;;;1.73;0.40;;;15.90;99.90;;;;;;5062410;28;20236;-58
2023/10/21 00:05:59;;;;;;;0.60;0.30;;;15.90;99.90;;;;;;5058901;28;20194;-58
2023/10/21 00:08:26;;;;;;;2.20;0.40;;;15.90;99.90;;;;;;5059312;28;20225;-59
2023/10/21 00:11:02;;;;;;;1.45;0.40;;;16.00;99.90;;;;;;5061290;28;20205;-57
2023/10/21 00:13:30;;;;;;;0.95;0.57;;;16.00;99.90;;;;;;5062453;28;20224;-58
2023/10/21 00:15:57;;;;;;;1.10;0.95;;;16.10;99.90;;;;;;5059083;28;20210;-58
2023/10/21 00:18:25;;;;;;;1.25;0.75;;;16.10;99.90;;;;;;5058798;28;20197;-58
2023/10/21 00:20:53;;;;;;;1.48;0.60;;;16.00;99.90;;;;;;5061042;28;20209;-58
2023/10/21 00:23:20;;;;;;;1.75;0.40;;;16.10;99.90;;;;;;5062545;28;20221;-58
2023/10/21 00:25:47;;;;;;;0.20;0.17;;;16.10;99.90;;;;;;5060564;28;20295;-59
2023/10/21 00:28:14;;;;;;;1.27;0.60;;;16.10;99.90;;;;;;5058874;28;20217;-57
2023/10/21 00:30:45;;;;;;;0.30;0.30;;;16.10;99.90;;;;;;5059117;28;20202;-58
2023/10/21 00:33:13;;;;;;;0.93;0.32;;;16.10;99.90;;;;;;5062058;28;20228;-58
2023/10/21 00:35:39;;;;;;;0.50;0.40;;;16.20;99.90;;;;;;5061662;28;20236;-59
2023/10/21 00:38:06;;;;;;;0.43;0.30;;;16.30;99.90;;;;;;5058477;28;20721;-58
2023/10/21 00:40:33;;;;;;;0.75;0.40;;;16.30;99.90;;;;;;5058758;28;20205;-59
2023/10/21 00:42:59;;;;;;;0.95;0.60;;;16.40;99.90;;;;;;5061707;28;20224;-57
2023/10/21 00:45:26;;;;;;;0.10;0.10;;;16.40;99.90;;;;;;5062074;28;20201;-58
2023/10/21 00:47:54;;;;;;;0.47;0.30;;;16.40;99.90;;;;;;5060074;28;20228;-59
2023/10/21 00:50:21;;;;;;;0.65;0.30;;;16.50;99.90;;;;;;5059305;28;20237;-59
2023/10/21 00:52:48;;;;;;;2.60;0.63;;;16.50;99.90;;;;;;5060282;28;20237;-58
2023/10/21 00:55:15;;;;;;;0.57;0.20;;;16.50;99.90;;;;;;5061936;28;20292;-57
2023/10/21 00:57:42;;;;;;;0.40;0.30;;;16.60;99.90;;;;;;5061009;28;20216;-57
2023/10/21 01:00:11;;;;;;;0.70;0.30;;;16.60;99.90;;;;;;5061323;28;20616;-58
2023/10/21 01:02:39;;;;;;;0.50;0.30;;;16.60;99.90;;;;;;5062355;28;20723;-58
2023/10/21 01:05:07;;;;;;;0.70;0.38;;;16.50;99.90;;;;;;5065686;28;20201;-59
2023/10/21 01:07:34;;;;;;;0.28;0.22;;;16.40;99.90;;;;;;5065969;28;20213;-58
2023/10/21 01:10:03;;;;;;;0.70;0.27;;;16.30;99.90;;;;;;5062461;28;20233;-58
2023/10/21 01:12:30;;;;;;;0.50;0.40;;;16.20;99.90;;;;;;5062152;28;20224;-59
2023/10/21 01:14:56;;;;;;;3.30;2.38;;;16.10;99.90;;;;;;5064703;28;20296;-59
2023/10/21 01:17:23;;;;;;;1.20;1.10;;;16.00;99.90;;;;;;5065522;28;20598;-59
2023/10/21 01:19:50;;;;;;;0.15;0.15;;;16.00;99.90;;;;;;5063597;28;20590;-58
2023/10/21 01:22:18;;;;;;;0.22;0.20;;;16.00;99.90;;;;;;5062074;28;20222;-59
2023/10/21 01:24:46;;;;;;;1.00;0.30;;;16.00;99.90;;;;;;5062842;28;20206;-58
2023/10/21 01:27:12;;;;;;;1.80;0.20;;;15.90;99.90;;;;;;5065207;28;20246;-57
2023/10/21 01:29:39;;;;;;;0.20;0.20;;;15.90;99.90;;;;;;5064655;28;20221;-58
2023/10/21 01:32:07;;;;;;;0.20;0.20;;;15.90;99.90;;;;;;5061669;28;20225;-58
2023/10/21 01:34:34;;;;;;;0.20;0.15;;;15.80;99.90;;;;;;5061800;28;20288;-57
2023/10/21 01:37:00;;;;;;;0.20;0.20;;;15.80;99.90;;;;;;5064788;28;20280;-59
2023/10/21 01:39:27;;;;;;;0.38;0.32;;;15.80;99.90;;;;;;5064903;28;20200;-58
2023/10/21 01:41:55;;;;;;;1.60;0.20;;;15.90;99.90;;;;;;5062512;28;20232;-58
2023/10/21 01:44:22;;;;;;;1.73;0.50;;;15.90;99.90;;;;;;5061719;28;20202;-59
2023/10/21 01:46:48;;;;;;;0.23;0.20;;;15.90;99.90;;;;;;5062752;28;20201;-58
2023/10/21 01:49:15;;;;;;;0.50;0.32;;;15.80;99.90;;;;;;5064931;28;20300;-58
2023/10/21 01:51:42;;;;;;;2.15;0.40;;;15.90;99.90;;;;;;5064189;28;20209;-58
2023/10/21 01:54:08;;;;;;;0.98;0.30;;;15.80;99.90;;;;;;5061226;28;20202;-58
2023/10/21 01:56:35;;;;;;;0.30;0.22;;;15.80;99.90;;;;;;5061280;28;20216;-59
2023/10/21 01:59:03;;;;;;;0.85;0.30;;;15.90;99.90;;;;;;5064228;28;20223;-58
2023/10/21 02:01:30;;;;;;;0.60;0.27;;;15.90;99.90;;;;;;5064617;28;20212;-58
2023/10/21 02:03:56;;;;;;;0.57;0.20;;;16.00;99.90;;;;;;5061888;28;20570;-58
2023/10/21 02:06:23;;;;;;;0.52;0.20;;;16.10;99.90;;;;;;5061133;28;20582;-58
2023/10/21 02:08:50;;;;;;;1.80;0.20;;;16.20;99.90;;;;;;5062197;28;20222;-58
2023/10/21 02:11:21;;;;;;;0.63;0.25;;;16.20;99.90;;;;;;5063554;28;20205;-58
2023/10/21 02:13:48;;;;;;;0.40;0.30;;;16.30;99.90;;;;;;5063299;28;20261;-58
2023/10/21 02:16:16;;;;;;;0.20;0.20;;;16.30;99.90;;;;;;5061129;28;20206;-58
2023/10/21 02:18:43;;;;;;;0.13;0.10;;;16.30;99.90;;;;;;5061500;28;20205;-58
2023/10/21 02:21:10;;;;;;;1.20;0.20;;;16.40;99.90;;;;;;5064134;28;20205;-58
2023/10/21 02:23:37;;;;;;;0.32;0.20;;;16.40;99.90;;;;;;5064294;28;20655;-57
2023/10/21 02:26:06;;;;;;;0.20;0.20;;;16.30;99.90;;;;;;5060994;28;20202;-56
2023/10/21 02:28:34;;;;;;;0.20;0.20;;;16.20;99.90;;;;;;5060830;28;20226;-58
2023/10/21 02:31:03;;;;;;;0.47;0.30;;;16.20;99.90;;;;;;5063653;28;20204;-58
2023/10/21 02:33:31;;;;;;;0.43;0.10;;;16.20;99.90;;;;;;5064265;28;20311;-58
2023/10/21 02:35:58;;;;;;;0.20;0.10;;;16.20;99.90;;;;;;5061194;28;20219;-59
2023/10/21 02:38:25;;;;;;;0.75;0.10;;;16.20;99.90;;;;;;5060951;28;20201;-59
2023/10/21 02:40:52;;;;;;;0.73;0.20;;;16.10;99.90;;;;;;5061942;28;20212;-58
2023/10/21 02:43:19;;;;;;;0.70;0.30;;;16.10;99.90;;;;;;5063871;28;20229;-58
2023/10/21 02:45:45;;;;;;;0.20;0.20;;;16.00;99.90;;;;;;5063206;28;20205;-59
2023/10/21 02:48:12;;;;;;;0.40;0.10;;;15.90;99.90;;;;;;5060316;28;20197;-58
2023/10/21 02:50:40;;;;;;;0.77;0.28;;;15.90;99.90;;;;;;5059926;28;20270;-58
2023/10/21 02:53:07;;;;;;;0.20;0.10;;;15.70;99.90;;;;;;5052268;28;20221;-58
2023/10/21 02:55:34;;;;;;;0.50;0.30;;;15.70;99.90;;;;;;5060062;28;20213;-57
2023/10/21 02:58:01;;;;;;;0.93;0.10;;;15.60;99.90;;;;;;5062588;28;20205;-57
2023/10/21 03:00:28;;;;;;;0.57;0.20;;;15.50;99.90;;;;;;5063441;28;20255;-57
2023/10/21 03:02:55;;;;;;;1.93;0.30;;;15.50;99.90;;;;;;5061108;28;20233;-57
2023/10/21 03:05:22;;;;;;;1.80;0.40;;;15.50;99.90;;;;;;5060208;28;20209;-58
2023/10/21 03:07:50;;;;;;;0.20;0.10;;;15.40;99.90;;;;;;5060983;28;20218;-57
2023/10/21 03:10:17;;;;;;;0.20;0.10;;;15.30;99.90;;;;;;5063137;28;20220;-56
2023/10/21 03:12:43;;;;;;;1.30;0.10;;;15.30;99.90;;;;;;5062658;28;20686;-58
2023/10/21 03:15:10;;;;;;;0.60;0.30;;;15.30;99.90;;;;;;5059954;28;20635;-58
2023/10/21 03:17:37;;;;;;;0.70;0.30;;;15.20;99.90;;;;;;5059778;28;20210;-58
2023/10/21 03:20:06;;;;;;;0.70;0.30;;;15.20;99.90;;;;;;5062432;28;20201;-58
2023/10/21 03:22:33;;;;;;;1.07;0.10;;;15.10;99.90;;;;;;5063040;28;20225;-58
2023/10/21 03:25:01;;;;;;;0.63;0.23;;;15.00;99.90;;;;;;5060249;28;20353;-58
2023/10/21 03:27:27;;;;;;;0.30;0.23;;;15.00;99.90;;;;;;5059384;28;20212;-57
2023/10/21 03:29:54;;;;;;;0.30;0.20;;;15.10;99.90;;;;;;5060850;28;20734;-58
2023/10/21 03:32:21;;;;;;;1.77;0.20;;;15.10;99.90;;;;;;5062729;28;20274;-58
2023/10/21 03:34:48;;;;;;;2.93;1.10;;;15.10;99.90;;;;;;5062031;28;20208;-59
2023/10/21 03:37:15;;;;;;;0.63;0.20;;;15.10;99.90;;;;;;5059595;28;20205;-59
2023/10/21 03:39:42;;;;;;;0.20;0.10;;;15.10;99.90;;;;;;5059199;28;20233;-59
2023/10/21 03:42:10;;;;;;;3.17;0.40;;;15.10;99.90;;;;;;5062733;28;20311;-59
2023/10/21 03:44:37;;;;;;;0.57;0.30;;;15.10;99.90;;;;;;5062623;28;20208;-58
2023/10/21 03:47:03;;;;;;;0.20;0.20;;;15.10;99.90;;;;;;5059511;28;20206;-58
2023/10/21 03:49:31;;;;;;;0.20;0.20;;;15.00;99.90;;;;;;5058825;28;20229;-57
2023/10/21 03:51:59;;;;;;;0.73;0.30;;;15.00;99.90;;;;;;5061390;28;20225;-58
2023/10/21 03:54:25;;;;;;;0.43;0.20;;;15.00;99.90;;;;;;5062639;28;20201;-56
2023/10/21 03:56:53;;;;;;;0.33;0.23;;;14.90;99.90;;;;;;5061039;28;20537;-59
2023/10/21 03:59:21;;;;;;;0.60;0.20;;;14.90;99.90;;;;;;5058852;28;20205;-59
2023/10/21 04:01:47;;;;;;;1.63;0.30;;;15.00;99.90;;;;;;5059655;28;20266;-59
2023/10/21 04:04:14;;;;;;;0.37;0.10;;;14.90;99.90;;;;;;5063280;28;20204;-59
2023/10/21 04:06:41;;;;;;;1.80;0.23;;;15.00;99.90;;;;;;5062482;28;20213;-59
2023/10/21 04:09:09;;;;;;;1.13;0.40;;;14.90;99.90;;;;;;5051022;28;20709;-59
2023/10/21 04:11:36;;;;;;;0.50;0.20;;;14.90;99.90;;;;;;5058923;28;20697;-58
2023/10/21 04:14:04;;;;;;;0.10;0.10;;;15.00;99.90;;;;;;5061606;28;20212;-59
2023/10/21 04:16:32;;;;;;;0.40;0.30;;;15.00;99.90;;;;;;5062156;28;20686;-58
2023/10/21 04:18:58;;;;;;;0.63;0.27;;;15.00;99.90;;;;;;5059980;28;20626;-58
2023/10/21 04:21:26;;;;;;;1.20;0.30;;;15.00;99.90;;;;;;5058963;28;20253;-58
2023/10/21 04:23:52;;;;;;;0.60;0.30;;;15.00;99.90;;;;;;5059929;28;20221;-57
2023/10/21 04:26:19;;;;;;;0.20;0.20;;;15.10;99.90;;;;;;5062027;28;20224;-56
2023/10/21 04:28:46;;;;;;;0.40;0.27;;;15.10;99.90;;;;;;5061826;28;20228;-56
2023/10/21 04:31:13;;;;;;;0.63;0.30;;;15.10;99.90;;;;;;5058945;28;20207;-57
2023/10/21 04:33:41;;;;;;;0.90;0.70;;;15.20;99.90;;;;;;5059678;28;20260;-57
2023/10/21 04:36:07;;;;;;;2.17;0.83;;;15.30;99.90;;;;;;5066011;28;20201;-58
2023/10/21 04:38:34;;;;;;;0.87;0.33;;;15.40;99.90;;;;;;5066059;28;20205;-56
2023/10/21 04:41:01;;;;;;;0.57;0.40;;;15.50;99.90;;;;;;5063252;28;20613;-58
2023/10/21 04:43:27;;;;;;;1.47;0.80;;;15.50;99.90;;;;;;5062750;28;20232;-58
2023/10/21 04:45:54;;;;;;;0.87;0.53;;;15.50;99.90;;;;;;5064198;28;20208;-57
2023/10/21 04:48:21;;;;;;;1.85;0.60;;;15.60;99.90;;;;;;5066025;28;20209;-57
2023/10/21 04:50:49;;;;;;;0.30;0.30;;;15.60;99.90;;;;;;5065024;28;20220;-58
2023/10/21 04:53:15;;;;;;;0.77;0.38;;;15.60;99.90;;;;;;5062488;28;20225;-58
2023/10/21 04:55:42;;;;;;;0.53;0.30;;;15.50;99.90;;;;;;5062306;28;20327;-58
2023/10/21 04:58:09;;;;;;;0.27;0.27;;;15.50;99.90;;;;;;5054314;28;20213;-58
2023/10/21 05:00:36;;;;;;;0.83;0.30;;;15.40;99.90;;;;;;5062453;28;20198;-58
2023/10/21 05:03:03;;;;;;;1.00;0.30;;;15.40;99.90;;;;;;5064608;28;20233;-59
2023/10/21 05:05:29;;;;;;;1.43;0.57;;;15.40;99.90;;;;;;5065664;28;20201;-58
2023/10/21 05:07:57;;;;;;;1.80;1.10;;;15.40;99.90;;;;;;5063551;28;20291;-58
2023/10/21 05:10:24;;;;;;;0.53;0.30;;;15.40;99.90;;;;;;5061978;28;20244;-59
2023/10/21 05:12:51;;;;;;;0.83;0.43;;;15.40;99.90;;;;;;5063026;28;20252;-58
2023/10/21 05:15:18;;;;;;;0.82;0.40;;;15.40;99.90;;;;;;5065524;28;20624;-59
2023/10/21 05:17:44;;;;;;;1.08;0.40;;;15.50;99.90;;;;;;5064974;28;20236;-56
2023/10/21 05:20:12;;;;;;;0.67;0.37;;;15.50;99.90;;;;;;5061659;28;20221;-58
2023/10/21 05:22:39;;;;;;;0.90;0.70;;;15.60;99.90;;;;;;5061629;28;20280;-57
2023/10/21 05:25:09;;;;;;;1.13;0.60;;;15.60;99.90;;;;;;5064952;28;20209;-58
2023/10/21 05:27:36;;;;;;;10.05;6.78;;;15.70;99.90;;;;;;5065396;28;20201;-58
2023/10/21 05:30:03;;;;;;;1.10;0.80;;;15.80;99.90;;;;;;5062183;28;20220;-58
2023/10/21 05:32:30;;;;;;;1.17;0.73;;;15.80;99.90;;;;;;5061843;28;20229;-59
2023/10/21 05:34:57;;;;;;;1.13;0.60;;;15.80;99.90;;;;;;5063014;28;20670;-59
2023/10/21 05:37:23;;;;;;;1.80;1.13;;;15.80;99.90;;;;;;5065088;28;20205;-58
2023/10/21 05:39:50;;;;;;;1.47;0.47;;;15.80;99.90;;;;;;5064064;28;20745;-59
2023/10/21 05:42:18;;;;;;;0.55;0.45;;;15.90;99.90;;;;;;5061580;28;20217;-59
2023/10/21 05:44:45;;;;;;;2.10;1.15;;;15.90;99.90;;;;;;5061115;28;20208;-59
2023/10/21 05:47:13;;;;;;;1.07;0.80;;;15.90;99.90;;;;;;5061287;28;20202;-58
2023/10/21 05:49:40;;;;;;;1.50;0.40;;;15.90;99.90;;;;;;5060907;28;20667;-58
2023/10/21 05:52:06;;;;;;;0.88;0.52;;;15.90;99.90;;;;;;5063934;28;20649;-58
2023/10/21 05:54:33;;;;;;;1.30;0.80;;;15.90;99.90;;;;;;5064844;28;20232;-58
2023/10/21 05:57:00;;;;;;;1.35;1.00;;;15.90;99.90;;;;;;5062873;28;20232;-57
2023/10/21 05:59:28;;;;;;;0.90;0.43;;;15.90;99.90;;;;;;5061019;28;20209;-58
2023/10/21 06:01:54;;;;;;;1.55;0.40;;;15.90;99.90;;;;;;5061841;28;20706;-60
2023/10/21 06:04:21;;;;;;;2.35;0.60;;;15.80;99.90;;;;;;5064409;28;20205;-59
2023/10/21 06:06:49;;;;;;;2.33;0.60;;;15.90;99.90;;;;;;5064134;28;20232;-60
2023/10/21 06:09:16;;;;;;;1.50;0.60;;;15.80;99.90;;;;;;5060596;28;20205;-58
2023/10/21 06:11:43;;;;;;;1.13;0.47;;;15.80;99.90;;;;;;5060755;28;20632;-59
2023/10/21 06:14:10;;;;;;;1.27;1.00;;;15.80;99.90;;;;;;5064476;28;20219;-59
2023/10/21 06:16:38;;;;;;;1.60;0.70;;;15.80;99.90;;;;;;5064351;28;20205;-58
2023/10/21 06:19:04;;;;;;;2.30;1.20;;;15.80;99.90;;;;;;5061735;28;20208;-59
2023/10/21 06:21:31;;;;;;;1.33;0.30;;;15.70;99.90;;;;;;5060779;28;20205;-59
2023/10/21 06:23:58;;;;;;;1.17;0.70;;;15.70;99.90;;;;;;5068952;28;20236;-59
2023/10/21 06:26:25;;;;;;;1.48;0.80;;;15.70;99.90;;;;;;5060844;28;20213;-60
2023/10/21 06:28:52;;;;;;;1.33;0.93;;;15.80;99.90;;;;;;5061245;28;20675;-60
2023/10/21 06:31:18;;;;;;;2.33;0.60;;;15.70;99.90;;;;;;5063525;28;20228;-60
2023/10/21 06:33:47;;;;;;;0.30;0.20;;;15.80;99.90;;;;;;5064075;28;20324;-60
2023/10/21 06:36:14;;;;;;;1.08;0.50;;;15.80;99.90;;;;;;5052454;28;20255;-60
2023/10/21 06:38:41;;;;;;;0.88;0.40;;;15.90;99.90;;;;;;5060544;28;20202;-60
2023/10/21 06:41:07;;;;;;;0.70;0.50;;;15.90;99.90;;;;;;5063300;28;20205;-60
2023/10/21 06:43:34;;;;;;;2.65;0.40;;;16.00;99.90;;;;;;5063943;28;20232;-60
2023/10/21 06:46:01;;;;;;;1.17;1.00;;;16.10;99.90;;;;;;5061304;28;20212;-60
2023/10/21 06:48:29;;;;;;;2.80;1.10;;;16.30;99.90;;;;;;5060453;28;20202;-60
2023/10/21 06:50:57;;;;;;;5.43;0.90;;;16.60;99.90;;;;;;5061204;28;20248;-60
2023/10/21 06:53:25;;;;;;;2.47;1.60;;;16.80;99.90;;;;;;5063674;28;20232;-60
2023/10/21 06:55:51;;;;;;;3.05;1.42;;;16.90;99.90;;;;;;5062957;28;20276;-60
2023/10/21 06:58:19;;;;;;;3.53;2.13;;;16.90;99.90;;;;;;5060156;28;20201;-60
2023/10/21 07:00:46;;;;;;;4.90;0.80;;;16.90;99.90;;;;;;5059800;28;20237;-60
2023/10/21 07:03:13;;;;;;;4.63;0.93;;;16.90;99.90;;;;;;5059952;28;20225;-59
2023/10/21 07:05:41;;;;;;;1.25;0.50;;;16.70;99.90;;;;;;5060034;28;20205;-59
2023/10/21 07:08:09;;;;;;;1.50;0.93;;;16.50;99.90;;;;;;5062453;28;22360;-59
2023/10/21 07:10:35;;;;;;;1.15;0.43;;;16.50;99.90;;;;;;5063031;28;20216;-58
2023/10/21 07:13:03;;;;;;;1.75;1.23;;;16.40;99.90;;;;;;5061146;28;20228;-59
2023/10/21 07:15:31;;;;;;;4.65;0.40;;;16.30;99.90;;;;;;5059999;28;20214;-60
2023/10/21 07:17:57;;;;;;;0.50;0.50;;;16.20;99.90;;;;;;5060955;28;20210;-59
2023/10/21 07:20:25;;;;;;;2.15;0.60;;;16.10;99.90;;;;;;5063052;28;20220;-59
2023/10/21 07:22:52;;;;;;;1.52;0.30;;;16.00;99.90;;;;;;5062314;28;20225;-59
2023/10/21 07:25:20;;;;;;;2.38;0.82;;;16.10;99.90;;;;;;5059794;28;20201;-60
2023/10/21 07:27:48;;;;;;;2.35;0.60;;;16.10;99.90;;;;;;5059642;28;20209;-60
2023/10/21 07:30:16;;;;;;;4.00;0.70;;;16.10;99.90;;;;;;5051389;28;20239;-59
2023/10/21 07:32:42;;;;;;;1.77;1.13;;;16.10;99.90;;;;;;5059676;28;20281;-60
2023/10/21 07:35:10;;;;;;;2.63;0.63;;;16.00;99.90;;;;;;5062198;28;20209;-60
2023/10/21 07:37:37;;;;;;;0.70;0.40;;;16.00;99.90;;;;;;5062755;28;20204;-60
2023/10/21 07:40:05;;;;;;;0.98;0.60;;;15.90;99.90;;;;;;5060347;28;20205;-59
2023/10/21 07:42:34;;;;;;;0.32;0.22;;;15.90;99.90;;;;;;5059361;28;20225;-59
2023/10/21 07:45:03;;;;;;;2.95;0.50;;;16.00;99.90;;;;;;5060983;28;20209;-60
2023/10/21 07:47:30;;;;;;;0.82;0.40;;;16.00;99.90;;;;;;5062836;28;20205;-60
2023/10/21 07:49:57;;;;;;;1.02;0.80;;;16.00;99.90;;;;;;5060887;28;20212;-59
2023/10/21 07:52:24;;;;;;;5.50;0.88;;;16.10;99.90;;;;;;5059144;28;20800;-60
2023/10/21 07:54:51;;;;;;;0.95;0.70;;;16.10;99.90;;;;;;5059341;28;20769;-59
2023/10/21 07:57:18;;;;;;;1.08;0.40;;;16.10;99.90;;;;;;5062500;28;20401;-60
2023/10/21 07:59:46;;;;;;;0.88;0.50;;;16.20;99.90;;;;;;5062014;28;20216;-60
2023/10/21 08:02:13;;;;;;;8.18;2.55;;;16.20;99.90;;;;;;5058666;28;20221;-59
2023/10/21 08:04:40;;;;;;;4.13;0.73;;;16.30;99.90;;;;;;5058894;28;20256;-60
2023/10/21 08:07:07;;;;;;;1.58;0.90;;;16.50;99.90;;;;;;5061176;28;20229;-58
2023/10/21 08:09:35;;;;;;;1.95;0.40;;;16.70;99.90;;;;;;5061684;28;20216;-60
2023/10/21 08:12:02;;;;;;;1.75;0.70;;;16.80;99.90;;;;;;5060263;28;20583;-59
2023/10/21 08:14:30;;;;;;;0.50;0.50;;;17.10;99.90;;;;;;5058799;28;20198;-60
2023/10/21 08:17:00;;;;;;;1.05;0.50;;;17.30;99.90;;;;;;5059690;28;20205;-61
2023/10/21 08:19:27;;;;;;;0.68;0.47;;;17.40;99.90;;;;;;5062226;28;20229;-59
2023/10/21 08:21:55;;;;;;;3.45;0.52;;;17.50;99.90;;;;;;5061947;28;20205;-59
2023/10/21 08:24:22;;;;;;;0.82;0.40;;;17.60;99.90;;;;;;5058962;28;20209;-59
2023/10/21 08:26:48;;;;;;;3.05;0.63;;;17.60;99.90;;;;;;5059079;28;20570;-60
2023/10/21 08:29:15;;;;;;;1.23;0.52;;;17.50;99.90;;;;;;5050403;28;20202;-60
2023/10/21 08:31:42;;;;;;;0.77;0.35;;;17.60;99.90;;;;;;5058711;28;20233;-60
2023/10/21 08:34:12;;;;;;;1.30;0.40;;;17.60;99.90;;;;;;5061154;28;20220;-59
2023/10/21 08:36:40;;;;;;;1.48;0.55;;;17.60;99.90;;;;;;5062049;28;20564;-59
2023/10/21 08:39:07;;;;;;;4.32;0.50;;;17.60;99.90;;;;;;5059565;28;20215;-59
2023/10/21 08:41:36;;;;;;;1.45;0.30;;;17.70;99.90;;;;;;5058525;28;20276;-60
2023/10/21 08:44:05;;;;;;;1.10;0.63;;;17.70;99.90;;;;;;5060281;28;20206;-60
2023/10/21 08:46:33;;;;;;;1.02;0.60;;;17.80;99.90;;;;;;5062207;28;20697;-59
2023/10/21 08:49:01;;;;;;;4.53;0.60;;;17.90;99.90;;;;;;5060814;28;20205;-59
2023/10/21 08:51:31;;;;;;;2.92;1.00;;;18.00;99.90;;;;;;5058367;28;20217;-59
2023/10/21 08:54:00;;;;;;;0.77;0.35;;;18.00;99.90;;;;;;5059431;28;20228;-60
2023/10/21 08:56:28;;;;;;;1.27;0.40;;;18.10;99.90;;;;;;5062072;28;20685;-59
2023/10/21 08:58:55;;;;;;;0.85;0.30;;;18.20;99.90;;;;;;5061427;28;20213;-59
2023/10/21 09:01:22;;;;;;;1.98;0.55;;;18.20;99.90;;;;;;5058604;28;20202;-59
2023/10/21 09:03:49;;;;;;;1.05;0.40;;;18.20;99.90;;;;;;5058486;28;20287;-59
2023/10/21 09:06:17;;;;;;;2.35;0.60;;;18.20;99.90;;;;;;5058681;28;20208;-58
2023/10/21 09:08:47;;;;;;;2.30;0.90;;;18.20;99.90;;;;;;5059072;28;20302;-59
2023/10/21 09:11:16;;;;;;;0.35;0.35;;;18.20;99.90;;;;;;5061277;28;20304;-59
2023/10/21 09:13:43;;;;;;;2.70;0.45;;;18.30;99.90;;;;;;5061912;28;20236;-60
2023/10/21 09:16:23;;;;;;;1.52;0.30;;;18.40;99.90;;;;;;5059435;28;20209;-59
2023/10/21 09:18:58;;;;;;;2.15;0.40;;;18.50;99.90;;;;;;5058796;28;20205;-59
2023/10/21 09:21:33;;;;;;;5.45;0.60;;;18.50;99.90;;;;;;5054739;28;20293;-59
2023/10/21 09:24:01;;;;;;;2.00;0.60;;;18.60;99.90;;;;;;5063388;28;20237;-59
2023/10/21 09:26:33;;;;;;;2.17;0.77;;;18.60;99.90;;;;;;5065454;28;20255;-59
2023/10/21 09:29:05;;;;;;;0.30;0.25;;;18.60;99.90;;;;;;5064580;28;20209;-58
2023/10/21 09:31:42;;;;;;;2.45;0.65;;;18.60;99.90;;;;;;5061815;28;20790;-59
2023/10/21 09:34:09;;;;;;;1.08;0.77;;;18.60;99.90;;;;;;5064162;28;20212;-58
2023/10/21 09:36:40;;;;;;;1.15;0.57;;;18.70;99.90;;;;;;5065266;28;20670;-58
2023/10/21 09:39:09;;;;;;;1.25;0.80;;;18.70;99.90;;;;;;5063162;28;20212;-58
2023/10/21 09:41:38;;;;;;;1.98;0.60;;;18.70;99.90;;;;;;5061973;28;20209;-58
2023/10/21 09:44:07;;;;;;;1.48;0.60;;;18.80;99.90;;;;;;5063814;28;20698;-59
2023/10/21 09:46:35;;;;;;;1.40;0.40;;;18.80;99.90;;;;;;5065027;28;20200;-59
2023/10/21 09:49:05;;;;;;;0.50;0.32;;;18.90;99.90;;;;;;5063819;28;20212;-59
2023/10/21 09:51:36;;;;;;;2.28;0.40;;;19.10;99.90;;;;;;5061352;28;20578;-60
2023/10/21 09:54:12;;;;;;;1.73;0.65;;;19.20;99.90;;;;;;5063281;28;20205;-60
2023/10/21 09:56:40;;;;;;;0.65;0.22;;;19.30;99.90;;;;;;5064985;28;20291;-59
2023/10/21 09:59:08;;;;;;;1.20;0.40;;;19.50;99.90;;;;;;5062480;28;20674;-60
2023/10/21 10:01:39;;;;;;;1.90;1.40;;;19.60;99.90;;;;;;5061517;28;20213;-59
2023/10/21 10:04:09;;;;;;;1.33;0.90;;;19.70;99.90;;;;;;5071136;22;20234;-60
2023/10/21 10:06:38;;;;;;;2.05;0.77;;;19.60;99.90;;;;;;5033465;28;20564;-62
2023/10/21 10:09:07;;;;;;;3.97;1.38;;;19.70;99.90;;;;;;5043064;28;20275;-62
2023/10/21 10:11:38;;;;;;;3.03;0.57;;;19.70;99.90;;;;;;5045522;28;20222;-61
2023/10/21 10:14:05;;;;;;;1.88;1.30;;;19.70;99.90;;;;;;5043403;28;20222;-62
2023/10/21 10:16:32;;;;;;;3.10;0.70;;;19.80;99.90;;;;;;5033075;28;20206;-62
2023/10/21 10:18:59;;;;;;;0.85;0.47;;;19.90;99.90;;;;;;5041972;28;20293;-63
2023/10/21 10:21:28;;;;;;;1.38;0.60;;;20.10;99.90;;;;;;5044737;28;20288;-63
2023/10/21 10:23:59;;;;;;;1.70;0.57;;;20.30;99.90;;;;;;5044356;28;20229;-62
2023/10/21 10:26:36;;;;;;;0.60;0.60;;;20.40;99.90;;;;;;5032713;28;20237;-63
2023/10/21 10:29:18;;;;;;;1.00;0.45;;;20.50;99.90;;;;;;5042166;28;20216;-62
2023/10/21 10:31:46;;;;;;;3.22;1.30;;;20.50;99.90;;;;;;5043496;28;20233;-61
2023/10/21 10:34:12;;;;;;;2.53;0.40;;;20.40;99.90;;;;;;5041501;28;20354;-62
2023/10/21 10:36:39;;;;;;;0.95;0.65;;;20.50;99.90;;;;;;5032629;28;20482;-62
2023/10/21 10:39:06;;;;;;;2.85;1.27;;;20.50;99.90;;;;;;5041843;28;20217;-63
2023/10/21 10:41:33;;;;;;;2.58;0.82;;;20.60;99.90;;;;;;5043593;28;20238;-62
2023/10/21 10:44:06;;;;;;;2.17;0.70;;;20.60;99.90;;;;;;5043777;28;20366;-62
2023/10/21 10:46:36;;;;;;;4.05;0.75;;;20.70;99.90;;;;;;5041259;28;20210;-61
2023/10/21 10:49:05;;;;;;;0.77;0.40;;;20.70;99.90;;;;;;5033284;28;20589;-61
2023/10/21 10:51:43;;;;;;;2.60;0.82;;;20.70;99.90;;;;;;5040654;28;20228;-62
2023/10/21 10:54:12;;;;;;;2.85;1.88;;;20.70;99.90;;;;;;5032027;28;20248;-62
2023/10/21 10:56:43;;;;;;;1.67;0.60;;;20.80;99.90;;;;;;5040376;28;20305;-62
2023/10/21 10:59:17;;;;;;;2.38;1.60;;;20.70;99.90;;;;;;5042301;28;20209;-62
2023/10/21 11:01:45;;;;;;;2.20;0.40;;;20.60;99.90;;;;;;5043637;28;20208;-62
2023/10/21 11:04:14;;;;;;;1.85;0.70;;;20.60;99.90;;;;;;5041051;28;20328;-62
2023/10/21 11:06:43;;;;;;;3.15;2.72;;;20.70;99.90;;;;;;5032002;28;20203;-62
2023/10/21 11:09:16;;;;;;;1.50;0.60;;;20.80;99.90;;;;;;5031755;28;20206;-62
2023/10/21 11:11:46;;;;;;;0.73;0.40;;;21.00;99.90;;;;;;5040015;28;20708;-62
2023/10/21 11:14:16;;;;;;;1.27;0.70;;;21.10;99.90;;;;;;5042290;28;20269;-63
2023/10/21 11:16:43;;;;;;;2.42;1.30;;;21.40;99.90;;;;;;5043381;28;20237;-63
2023/10/21 11:19:10;;;;;;;1.10;0.45;;;21.50;99.90;;;;;;5041234;28;20213;-62
2023/10/21 11:21:39;;;;;;;2.33;0.80;;;21.70;99.90;;;;;;5031758;28;20199;-62
2023/10/21 11:24:07;;;;;;;1.58;0.50;;;21.80;99.90;;;;;;5031586;28;20261;-61
2023/10/21 11:26:36;;;;;;;0.80;0.73;;;21.80;99.90;;;;;;5040262;28;20261;-62
2023/10/21 11:29:05;;;;;;;2.13;0.93;;;21.80;99.90;;;;;;5032519;28;20217;-61
2023/10/21 11:31:34;;;;;;;1.33;0.52;;;21.90;99.90;;;;;;5040003;28;20718;-62
2023/10/21 11:34:09;;;;;;;0.90;0.45;;;21.90;99.90;;;;;;5031089;28;20588;-62
2023/10/21 11:36:36;;;;;;;2.85;0.80;;;22.00;99.90;;;;;;5040008;28;20237;-62
2023/10/21 11:39:06;;;;;;;3.97;2.75;;;22.10;99.90;;;;;;5031448;28;20210;-62
2023/10/21 11:41:33;;;;;;;1.40;0.35;;;22.10;99.90;;;;;;5039424;28;20652;-62
2023/10/21 11:44:04;;;;;;;0.52;0.30;;;22.10;99.90;;;;;;5030089;28;20226;-62
2023/10/21 11:46:30;;;;;;;0.60;0.30;;;22.10;99.90;;;;;;5031492;28;20210;-62
2023/10/21 11:49:00;;;;;;;1.35;0.50;;;21.90;99.90;;;;;;5031400;28;20217;-62
2023/10/21 11:51:29;;;;;;;0.55;0.30;;;21.90;99.90;;;;;;5031264;28;20723;-63
2023/10/21 11:53:56;;;;;;;1.17;0.50;;;21.90;99.90;;;;;;5039492;28;20691;-62
2023/10/21 12:10:40;;;;;;;2.42;0.73;;;22.40;99.90;;;;;;5040959;28;20245;-62
2023/10/21 12:13:25;;;;;;;2.30;0.50;;;22.50;99.90;;;;;;5040885;28;20607;-62
2023/10/21 12:16:29;;;;;;;0.63;0.45;;;22.50;99.90;;;;;;5039361;28;20577;-62
2023/10/21 12:19:24;;;;;;;1.20;0.60;;;22.40;99.90;;;;;;5035755;28;20276;-62
2023/10/21 12:22:22;;;;;;;2.75;0.70;;;22.20;99.90;;;;;;5035266;28;20209;-61
2023/10/21 12:33:42;;;;;;;1.80;0.60;;;21.90;99.90;;;;;;5041593;28;20725;-62
2023/10/21 12:36:20;;;;;;;1.00;0.50;;;21.70;99.90;;;;;;5040723;28;20220;-61
2023/10/21 12:38:56;;;;;;;1.63;0.68;;;21.50;99.90;;;;;;5039222;28;20230;-61
2023/10/21 12:41:26;;;;;;;3.08;1.35;;;21.30;99.90;;;;;;5030906;28;20255;-64
2023/10/21 12:43:53;;;;;;;1.35;0.65;;;21.10;99.90;;;;;;5038797;28;20272;-68
2023/10/21 12:46:20;;;;;;;1.92;0.65;;;20.90;99.90;;;;;;5027908;28;20218;-64
2023/10/21 12:48:51;;;;;;;1.92;0.50;;;20.80;99.90;;;;;;5039150;28;20290;-67
2023/10/21 12:51:18;;;;;;;1.33;0.30;;;20.80;99.90;;;;;;5030361;28;20210;-65
2023/10/21 12:53:45;;;;;;;1.20;0.40;;;21.00;99.90;;;;;;5038847;28;20230;-68
2023/10/21 12:56:14;;;;;;;0.43;0.32;;;21.10;99.90;;;;;;5033982;28;20209;-63
2023/10/21 12:58:41;;;;;;;0.82;0.30;;;21.20;99.90;;;;;;5042600;28;20206;-64
2023/10/21 13:01:12;;;;;;;1.83;0.63;;;21.30;99.90;;;;;;5034257;28;20276;-61
2023/10/21 13:03:39;;;;;;;1.45;0.20;;;21.30;99.90;;;;;;5042731;28;20691;-64
2023/10/21 13:06:06;;;;;;;1.40;0.55;;;21.30;99.90;;;;;;5040544;28;20210;-62
2023/10/21 13:08:34;;;;;;;1.10;0.80;;;21.20;99.90;;;;;;5027132;28;20249;-63
2023/10/21 13:11:00;;;;;;;1.00;0.35;;;21.20;99.90;;;;;;5034339;28;20218;-66
2023/10/21 13:13:28;;;;;;;1.00;0.22;;;21.20;99.90;;;;;;5040733;28;20226;-64
2023/10/21 13:15:56;;;;;;;1.00;0.57;;;21.20;99.90;;;;;;5032789;28;20214;-60